sensor_id;sensor_type;location;lat;lon;timestamp;P1;durP1;ratioP1;P2;durP2;ratioP2
32734;SDS011;19112;51.076;3.706;2023-05-29T00:00:20;28.80;;;10.18;;
32734;SDS011;19112;51.076;3.706;2023-05-29T00:02:46;28.33;;;9.98;;
32734;SDS011;19112;51.076;3.706;2023-05-29T00:05:14;28.10;;;8.98;;
32734;SDS011;19112;51.076;3.706;2023-05-29T00:07:40;24.98;;;9.05;;
32734;SDS011;19112;51.076;3.706;2023-05-29T00:10:07;30.33;;;10.23;;
32734;SDS011;19112;51.076;3.706;2023-05-29T00:12:36;21.05;;;8.18;;
32734;SDS011;19112;51.076;3.706;2023-05-29T00:15:04;28.33;;;10.18;;
32734;SDS011;19112;51.076;3.706;2023-05-29T00:17:31;28.38;;;9.38;;
32734;SDS011;19112;51.076;3.706;2023-05-29T00:20:00;23.90;;;8.35;;
32734;SDS011;19112;51.076;3.706;2023-05-29T00:22:30;29.23;;;8.50;;
32734;SDS011;19112;51.076;3.706;2023-05-29T00:24:56;26.73;;;9.15;;
32734;SDS011;19112;51.076;3.706;2023-05-29T00:27:22;24.13;;;8.10;;
32734;SDS011;19112;51.076;3.706;2023-05-29T00:29:48;22.58;;;7.80;;
32734;SDS011;19112;51.076;3.706;2023-05-29T00:32:14;23.45;;;8.10;;
32734;SDS011;19112;51.076;3.706;2023-05-29T00:34:39;30.35;;;8.55;;
32734;SDS011;19112;51.076;3.706;2023-05-29T00:37:05;28.55;;;8.27;;
32734;SDS011;19112;51.076;3.706;2023-05-29T00:39:31;19.65;;;6.78;;
32734;SDS011;19112;51.076;3.706;2023-05-29T00:41:57;25.55;;;7.18;;
32734;SDS011;19112;51.076;3.706;2023-05-29T00:44:23;26.30;;;7.50;;
32734;SDS011;19112;51.076;3.706;2023-05-29T00:46:49;22.10;;;6.57;;
32734;SDS011;19112;51.076;3.706;2023-05-29T00:49:18;25.02;;;6.80;;
32734;SDS011;19112;51.076;3.706;2023-05-29T00:51:46;24.65;;;7.05;;
32734;SDS011;19112;51.076;3.706;2023-05-29T00:54:17;28.15;;;6.78;;
32734;SDS011;19112;51.076;3.706;2023-05-29T00:56:49;22.38;;;6.50;;
32734;SDS011;19112;51.076;3.706;2023-05-29T00:59:15;27.45;;;6.55;;
32734;SDS011;19112;51.076;3.706;2023-05-29T01:01:43;20.88;;;5.78;;
32734;SDS011;19112;51.076;3.706;2023-05-29T01:04:09;23.13;;;6.47;;
32734;SDS011;19112;51.076;3.706;2023-05-29T01:06:39;26.83;;;6.80;;
32734;SDS011;19112;51.076;3.706;2023-05-29T01:09:06;26.27;;;6.90;;
32734;SDS011;19112;51.076;3.706;2023-05-29T01:20:17;33.75;;;9.57;;
32734;SDS011;19112;51.076;3.706;2023-05-29T01:29:02;22.13;;;5.88;;
32734;SDS011;19112;51.076;3.706;2023-05-29T01:31:31;30.77;;;8.60;;
32734;SDS011;19112;51.076;3.706;2023-05-29T01:33:59;38.65;;;12.00;;
32734;SDS011;19112;51.076;3.706;2023-05-29T01:36:26;33.53;;;10.80;;
32734;SDS011;19112;51.076;3.706;2023-05-29T01:38:53;41.20;;;13.70;;
32734;SDS011;19112;51.076;3.706;2023-05-29T01:41:22;37.92;;;13.23;;
32734;SDS011;19112;51.076;3.706;2023-05-29T01:43:51;38.80;;;11.57;;
32734;SDS011;19112;51.076;3.706;2023-05-29T01:46:18;35.58;;;10.70;;
32734;SDS011;19112;51.076;3.706;2023-05-29T01:48:45;39.55;;;13.15;;
32734;SDS011;19112;51.076;3.706;2023-05-29T01:51:12;35.40;;;10.30;;
32734;SDS011;19112;51.076;3.706;2023-05-29T01:53:38;32.47;;;9.55;;
32734;SDS011;19112;51.076;3.706;2023-05-29T01:56:06;31.67;;;10.68;;
32734;SDS011;19112;51.076;3.706;2023-05-29T01:58:37;33.42;;;10.88;;
32734;SDS011;19112;51.076;3.706;2023-05-29T02:01:05;29.65;;;8.50;;
32734;SDS011;19112;51.076;3.706;2023-05-29T02:03:32;33.13;;;8.30;;
32734;SDS011;19112;51.076;3.706;2023-05-29T02:05:59;33.10;;;8.98;;
32734;SDS011;19112;51.076;3.706;2023-05-29T02:08:25;33.08;;;9.43;;
32734;SDS011;19112;51.076;3.706;2023-05-29T02:10:52;29.95;;;8.07;;
32734;SDS011;19112;51.076;3.706;2023-05-29T02:13:18;24.17;;;7.07;;
32734;SDS011;19112;51.076;3.706;2023-05-29T02:15:44;22.48;;;6.68;;
32734;SDS011;19112;51.076;3.706;2023-05-29T02:18:10;29.60;;;7.72;;
32734;SDS011;19112;51.076;3.706;2023-05-29T02:20:39;37.28;;;10.40;;
32734;SDS011;19112;51.076;3.706;2023-05-29T02:23:08;32.58;;;10.52;;
32734;SDS011;19112;51.076;3.706;2023-05-29T02:25:35;31.60;;;9.98;;
32734;SDS011;19112;51.076;3.706;2023-05-29T02:28:01;29.42;;;9.80;;
32734;SDS011;19112;51.076;3.706;2023-05-29T02:30:28;31.20;;;7.93;;
32734;SDS011;19112;51.076;3.706;2023-05-29T02:32:54;32.38;;;8.63;;
32734;SDS011;19112;51.076;3.706;2023-05-29T02:35:20;33.63;;;11.05;;
32734;SDS011;19112;51.076;3.706;2023-05-29T02:37:48;24.92;;;7.20;;
32734;SDS011;19112;51.076;3.706;2023-05-29T02:40:14;38.10;;;9.45;;
32734;SDS011;19112;51.076;3.706;2023-05-29T02:42:40;25.63;;;6.50;;
32734;SDS011;19112;51.076;3.706;2023-05-29T02:45:07;23.58;;;5.07;;
32734;SDS011;19112;51.076;3.706;2023-05-29T02:47:33;28.20;;;5.30;;
32734;SDS011;19112;51.076;3.706;2023-05-29T02:50:00;22.38;;;5.00;;
32734;SDS011;19112;51.076;3.706;2023-05-29T02:52:26;22.73;;;4.95;;
32734;SDS011;19112;51.076;3.706;2023-05-29T02:54:52;17.10;;;4.35;;
32734;SDS011;19112;51.076;3.706;2023-05-29T02:57:19;27.02;;;5.38;;
32734;SDS011;19112;51.076;3.706;2023-05-29T02:59:45;23.17;;;5.40;;
32734;SDS011;19112;51.076;3.706;2023-05-29T03:02:11;24.52;;;5.18;;
32734;SDS011;19112;51.076;3.706;2023-05-29T03:04:37;27.98;;;7.35;;
32734;SDS011;19112;51.076;3.706;2023-05-29T03:07:03;27.48;;;6.32;;
32734;SDS011;19112;51.076;3.706;2023-05-29T03:09:29;27.17;;;7.03;;
32734;SDS011;19112;51.076;3.706;2023-05-29T03:11:56;26.67;;;8.00;;
32734;SDS011;19112;51.076;3.706;2023-05-29T03:14:21;33.63;;;9.38;;
32734;SDS011;19112;51.076;3.706;2023-05-29T03:16:48;27.27;;;9.73;;
32734;SDS011;19112;51.076;3.706;2023-05-29T03:19:15;38.95;;;10.70;;
32734;SDS011;19112;51.076;3.706;2023-05-29T03:21:41;32.78;;;10.25;;
32734;SDS011;19112;51.076;3.706;2023-05-29T03:24:08;29.60;;;8.88;;
32734;SDS011;19112;51.076;3.706;2023-05-29T03:26:33;33.72;;;8.75;;
32734;SDS011;19112;51.076;3.706;2023-05-29T03:29:01;25.80;;;7.25;;
32734;SDS011;19112;51.076;3.706;2023-05-29T03:31:28;28.17;;;8.98;;
32734;SDS011;19112;51.076;3.706;2023-05-29T03:33:53;33.90;;;8.60;;
32734;SDS011;19112;51.076;3.706;2023-05-29T03:36:19;22.27;;;5.40;;
32734;SDS011;19112;51.076;3.706;2023-05-29T03:38:45;28.17;;;6.30;;
32734;SDS011;19112;51.076;3.706;2023-05-29T03:41:11;32.33;;;7.90;;
32734;SDS011;19112;51.076;3.706;2023-05-29T03:43:37;27.58;;;6.70;;
32734;SDS011;19112;51.076;3.706;2023-05-29T03:46:03;24.50;;;5.75;;
32734;SDS011;19112;51.076;3.706;2023-05-29T03:48:29;28.38;;;6.45;;
32734;SDS011;19112;51.076;3.706;2023-05-29T03:50:54;24.10;;;5.57;;
32734;SDS011;19112;51.076;3.706;2023-05-29T03:53:20;28.73;;;5.60;;
32734;SDS011;19112;51.076;3.706;2023-05-29T03:55:46;20.90;;;5.72;;
32734;SDS011;19112;51.076;3.706;2023-05-29T03:58:12;29.23;;;6.63;;
32734;SDS011;19112;51.076;3.706;2023-05-29T04:00:39;28.70;;;7.72;;
32734;SDS011;19112;51.076;3.706;2023-05-29T04:03:05;32.38;;;8.05;;
32734;SDS011;19112;51.076;3.706;2023-05-29T04:05:31;35.15;;;9.88;;
32734;SDS011;19112;51.076;3.706;2023-05-29T04:07:59;37.88;;;10.63;;
32734;SDS011;19112;51.076;3.706;2023-05-29T04:10:25;34.28;;;10.00;;
32734;SDS011;19112;51.076;3.706;2023-05-29T04:12:51;38.53;;;10.52;;
32734;SDS011;19112;51.076;3.706;2023-05-29T04:15:17;34.65;;;9.80;;
32734;SDS011;19112;51.076;3.706;2023-05-29T04:17:43;34.70;;;11.23;;
32734;SDS011;19112;51.076;3.706;2023-05-29T04:20:11;38.95;;;11.23;;
32734;SDS011;19112;51.076;3.706;2023-05-29T04:22:38;35.92;;;10.60;;
32734;SDS011;19112;51.076;3.706;2023-05-29T04:27:33;41.47;;;10.70;;
32734;SDS011;19112;51.076;3.706;2023-05-29T04:30:03;31.70;;;8.10;;
32734;SDS011;19112;51.076;3.706;2023-05-29T04:32:30;34.22;;;8.63;;
32734;SDS011;19112;51.076;3.706;2023-05-29T04:34:57;32.30;;;9.90;;
32734;SDS011;19112;51.076;3.706;2023-05-29T04:37:29;34.33;;;10.07;;
32734;SDS011;19112;51.076;3.706;2023-05-29T04:39:55;28.90;;;7.97;;
32734;SDS011;19112;51.076;3.706;2023-05-29T04:42:22;29.58;;;7.88;;
32734;SDS011;19112;51.076;3.706;2023-05-29T04:44:50;27.17;;;6.75;;
32734;SDS011;19112;51.076;3.706;2023-05-29T04:47:17;32.72;;;8.15;;
32734;SDS011;19112;51.076;3.706;2023-05-29T04:49:44;25.98;;;7.97;;
32734;SDS011;19112;51.076;3.706;2023-05-29T04:52:18;32.47;;;5.72;;
32734;SDS011;19112;51.076;3.706;2023-05-29T04:57:18;28.30;;;6.47;;
32734;SDS011;19112;51.076;3.706;2023-05-29T04:59:43;25.55;;;5.15;;
32734;SDS011;19112;51.076;3.706;2023-05-29T05:02:13;24.80;;;4.72;;
32734;SDS011;19112;51.076;3.706;2023-05-29T05:07:14;26.65;;;4.70;;
32734;SDS011;19112;51.076;3.706;2023-05-29T05:09:41;25.23;;;4.22;;
32734;SDS011;19112;51.076;3.706;2023-05-29T05:12:10;29.23;;;6.18;;
32734;SDS011;19112;51.076;3.706;2023-05-29T05:14:41;25.75;;;4.50;;
32734;SDS011;19112;51.076;3.706;2023-05-29T05:17:07;20.45;;;4.13;;
32734;SDS011;19112;51.076;3.706;2023-05-29T05:19:33;21.92;;;4.38;;
32734;SDS011;19112;51.076;3.706;2023-05-29T05:21:59;18.77;;;3.40;;
32734;SDS011;19112;51.076;3.706;2023-05-29T05:24:25;18.50;;;3.90;;
32734;SDS011;19112;51.076;3.706;2023-05-29T05:26:51;29.00;;;4.15;;
32734;SDS011;19112;51.076;3.706;2023-05-29T05:29:17;24.60;;;4.78;;
32734;SDS011;19112;51.076;3.706;2023-05-29T05:31:43;27.10;;;4.80;;
32734;SDS011;19112;51.076;3.706;2023-05-29T05:34:10;20.55;;;3.97;;
32734;SDS011;19112;51.076;3.706;2023-05-29T05:36:35;28.05;;;4.25;;
32734;SDS011;19112;51.076;3.706;2023-05-29T05:39:01;23.48;;;5.20;;
32734;SDS011;19112;51.076;3.706;2023-05-29T05:41:27;20.92;;;5.28;;
32734;SDS011;19112;51.076;3.706;2023-05-29T05:43:53;24.33;;;3.53;;
32734;SDS011;19112;51.076;3.706;2023-05-29T05:46:19;21.40;;;3.35;;
32734;SDS011;19112;51.076;3.706;2023-05-29T05:48:45;23.40;;;4.53;;
32734;SDS011;19112;51.076;3.706;2023-05-29T05:51:11;21.92;;;6.22;;
32734;SDS011;19112;51.076;3.706;2023-05-29T05:53:37;28.05;;;3.78;;
32734;SDS011;19112;51.076;3.706;2023-05-29T05:56:03;19.83;;;4.13;;
32734;SDS011;19112;51.076;3.706;2023-05-29T05:58:29;21.40;;;4.10;;
32734;SDS011;19112;51.076;3.706;2023-05-29T06:00:55;25.85;;;4.25;;
32734;SDS011;19112;51.076;3.706;2023-05-29T06:03:22;25.05;;;4.10;;
32734;SDS011;19112;51.076;3.706;2023-05-29T06:05:48;21.02;;;3.92;;
32734;SDS011;19112;51.076;3.706;2023-05-29T06:08:15;25.42;;;4.03;;
32734;SDS011;19112;51.076;3.706;2023-05-29T06:10:41;21.48;;;3.97;;
32734;SDS011;19112;51.076;3.706;2023-05-29T06:13:07;24.52;;;4.15;;
32734;SDS011;19112;51.076;3.706;2023-05-29T06:15:33;24.30;;;4.43;;
32734;SDS011;19112;51.076;3.706;2023-05-29T06:18:00;26.65;;;4.55;;
32734;SDS011;19112;51.076;3.706;2023-05-29T06:20:27;20.63;;;3.60;;
32734;SDS011;19112;51.076;3.706;2023-05-29T06:22:54;24.27;;;3.70;;
32734;SDS011;19112;51.076;3.706;2023-05-29T06:25:21;24.77;;;4.53;;
32734;SDS011;19112;51.076;3.706;2023-05-29T06:27:47;24.40;;;4.00;;
32734;SDS011;19112;51.076;3.706;2023-05-29T06:30:13;25.65;;;4.65;;
32734;SDS011;19112;51.076;3.706;2023-05-29T06:32:40;18.58;;;3.78;;
32734;SDS011;19112;51.076;3.706;2023-05-29T06:35:06;26.40;;;4.20;;
32734;SDS011;19112;51.076;3.706;2023-05-29T06:37:32;24.15;;;3.80;;
32734;SDS011;19112;51.076;3.706;2023-05-29T06:39:58;18.08;;;4.07;;
32734;SDS011;19112;51.076;3.706;2023-05-29T06:42:24;20.77;;;3.88;;
32734;SDS011;19112;51.076;3.706;2023-05-29T06:44:50;29.30;;;4.28;;
32734;SDS011;19112;51.076;3.706;2023-05-29T06:47:15;20.75;;;3.50;;
32734;SDS011;19112;51.076;3.706;2023-05-29T06:49:41;25.50;;;3.88;;
32734;SDS011;19112;51.076;3.706;2023-05-29T06:52:07;17.77;;;3.75;;
32734;SDS011;19112;51.076;3.706;2023-05-29T06:54:33;23.00;;;3.75;;
32734;SDS011;19112;51.076;3.706;2023-05-29T06:56:59;20.88;;;3.90;;
32734;SDS011;19112;51.076;3.706;2023-05-29T06:59:24;24.63;;;4.80;;
32734;SDS011;19112;51.076;3.706;2023-05-29T07:01:50;21.98;;;3.92;;
32734;SDS011;19112;51.076;3.706;2023-05-29T07:04:16;20.88;;;3.60;;
32734;SDS011;19112;51.076;3.706;2023-05-29T07:06:42;20.00;;;4.00;;
32734;SDS011;19112;51.076;3.706;2023-05-29T07:09:08;20.58;;;3.67;;
32734;SDS011;19112;51.076;3.706;2023-05-29T07:11:33;21.35;;;4.18;;
32734;SDS011;19112;51.076;3.706;2023-05-29T07:13:59;26.67;;;4.20;;
32734;SDS011;19112;51.076;3.706;2023-05-29T07:16:25;22.30;;;4.60;;
32734;SDS011;19112;51.076;3.706;2023-05-29T07:18:51;22.27;;;4.22;;
32734;SDS011;19112;51.076;3.706;2023-05-29T07:21:17;21.23;;;4.90;;
32734;SDS011;19112;51.076;3.706;2023-05-29T07:23:43;22.13;;;4.07;;
32734;SDS011;19112;51.076;3.706;2023-05-29T07:26:10;22.58;;;4.22;;
32734;SDS011;19112;51.076;3.706;2023-05-29T07:28:37;15.80;;;3.58;;
32734;SDS011;19112;51.076;3.706;2023-05-29T07:31:02;24.08;;;4.32;;
32734;SDS011;19112;51.076;3.706;2023-05-29T07:33:28;16.42;;;3.75;;
32734;SDS011;19112;51.076;3.706;2023-05-29T07:35:54;19.65;;;4.00;;
32734;SDS011;19112;51.076;3.706;2023-05-29T07:38:20;26.80;;;4.10;;
32734;SDS011;19112;51.076;3.706;2023-05-29T07:40:46;24.77;;;4.97;;
32734;SDS011;19112;51.076;3.706;2023-05-29T07:43:12;20.73;;;4.03;;
32734;SDS011;19112;51.076;3.706;2023-05-29T07:45:37;19.75;;;4.32;;
32734;SDS011;19112;51.076;3.706;2023-05-29T07:48:03;20.27;;;4.13;;
32734;SDS011;19112;51.076;3.706;2023-05-29T07:50:30;22.65;;;4.13;;
32734;SDS011;19112;51.076;3.706;2023-05-29T07:52:55;20.13;;;3.80;;
32734;SDS011;19112;51.076;3.706;2023-05-29T07:55:23;17.50;;;3.97;;
32734;SDS011;19112;51.076;3.706;2023-05-29T07:57:49;17.63;;;3.38;;
32734;SDS011;19112;51.076;3.706;2023-05-29T08:00:15;24.38;;;3.50;;
32734;SDS011;19112;51.076;3.706;2023-05-29T08:02:41;25.73;;;4.70;;
32734;SDS011;19112;51.076;3.706;2023-05-29T08:05:07;23.95;;;3.58;;
32734;SDS011;19112;51.076;3.706;2023-05-29T08:07:34;19.27;;;3.70;;
32734;SDS011;19112;51.076;3.706;2023-05-29T08:10:01;15.40;;;3.25;;
32734;SDS011;19112;51.076;3.706;2023-05-29T08:12:28;21.15;;;4.55;;
32734;SDS011;19112;51.076;3.706;2023-05-29T08:14:53;19.95;;;3.70;;
32734;SDS011;19112;51.076;3.706;2023-05-29T08:17:19;14.48;;;3.58;;
32734;SDS011;19112;51.076;3.706;2023-05-29T08:19:45;24.75;;;4.65;;
32734;SDS011;19112;51.076;3.706;2023-05-29T08:22:12;16.83;;;3.25;;
32734;SDS011;19112;51.076;3.706;2023-05-29T08:24:40;24.75;;;4.60;;
32734;SDS011;19112;51.076;3.706;2023-05-29T08:27:06;24.85;;;4.50;;
32734;SDS011;19112;51.076;3.706;2023-05-29T08:29:31;19.67;;;4.40;;
32734;SDS011;19112;51.076;3.706;2023-05-29T08:31:57;23.17;;;5.88;;
32734;SDS011;19112;51.076;3.706;2023-05-29T08:34:23;21.75;;;4.60;;
32734;SDS011;19112;51.076;3.706;2023-05-29T08:36:49;26.80;;;5.35;;
32734;SDS011;19112;51.076;3.706;2023-05-29T08:39:16;21.83;;;5.75;;
32734;SDS011;19112;51.076;3.706;2023-05-29T08:44:32;27.30;;;6.22;;
32734;SDS011;19112;51.076;3.706;2023-05-29T08:47:00;25.95;;;5.85;;
32734;SDS011;19112;51.076;3.706;2023-05-29T08:49:29;24.73;;;4.80;;
32734;SDS011;19112;51.076;3.706;2023-05-29T08:52:02;25.83;;;5.20;;
32734;SDS011;19112;51.076;3.706;2023-05-29T08:54:37;26.23;;;5.18;;
32734;SDS011;19112;51.076;3.706;2023-05-29T08:57:03;28.90;;;5.50;;
32734;SDS011;19112;51.076;3.706;2023-05-29T08:59:29;22.05;;;4.10;;
32734;SDS011;19112;51.076;3.706;2023-05-29T09:01:56;22.73;;;4.63;;
32734;SDS011;19112;51.076;3.706;2023-05-29T09:04:22;18.48;;;4.07;;
32734;SDS011;19112;51.076;3.706;2023-05-29T09:06:48;23.55;;;4.55;;
32734;SDS011;19112;51.076;3.706;2023-05-29T09:09:17;32.97;;;5.43;;
32734;SDS011;19112;51.076;3.706;2023-05-29T09:11:43;23.40;;;5.45;;
32734;SDS011;19112;51.076;3.706;2023-05-29T09:14:31;25.23;;;5.20;;
32734;SDS011;19112;51.076;3.706;2023-05-29T09:16:59;24.70;;;5.03;;
32734;SDS011;19112;51.076;3.706;2023-05-29T09:19:25;23.63;;;4.55;;
32734;SDS011;19112;51.076;3.706;2023-05-29T09:21:59;25.73;;;5.88;;
32734;SDS011;19112;51.076;3.706;2023-05-29T09:24:35;26.05;;;5.25;;
32734;SDS011;19112;51.076;3.706;2023-05-29T09:27:03;25.20;;;4.63;;
32734;SDS011;19112;51.076;3.706;2023-05-29T09:29:33;26.65;;;6.78;;
32734;SDS011;19112;51.076;3.706;2023-05-29T09:32:06;23.70;;;5.32;;
32734;SDS011;19112;51.076;3.706;2023-05-29T09:34:34;47.80;;;15.15;;
32734;SDS011;19112;51.076;3.706;2023-05-29T09:37:01;31.40;;;11.50;;
32734;SDS011;19112;51.076;3.706;2023-05-29T09:39:50;35.65;;;7.05;;
32734;SDS011;19112;51.076;3.706;2023-05-29T09:42:19;24.98;;;5.65;;
32734;SDS011;19112;51.076;3.706;2023-05-29T09:44:48;24.75;;;5.80;;
32734;SDS011;19112;51.076;3.706;2023-05-29T09:47:17;28.33;;;5.82;;
32734;SDS011;19112;51.076;3.706;2023-05-29T09:49:44;23.90;;;5.05;;
32734;SDS011;19112;51.076;3.706;2023-05-29T09:52:11;28.42;;;5.40;;
32734;SDS011;19112;51.076;3.706;2023-05-29T09:54:44;20.58;;;4.80;;
32734;SDS011;19112;51.076;3.706;2023-05-29T09:57:13;20.07;;;4.77;;
32734;SDS011;19112;51.076;3.706;2023-05-29T09:59:43;18.85;;;4.05;;
32734;SDS011;19112;51.076;3.706;2023-05-29T10:02:16;25.13;;;4.97;;
32734;SDS011;19112;51.076;3.706;2023-05-29T10:04:43;22.15;;;5.13;;
32734;SDS011;19112;51.076;3.706;2023-05-29T10:09:55;23.13;;;4.50;;
32734;SDS011;19112;51.076;3.706;2023-05-29T10:12:27;23.02;;;4.88;;
32734;SDS011;19112;51.076;3.706;2023-05-29T10:14:54;20.45;;;4.03;;
32734;SDS011;19112;51.076;3.706;2023-05-29T10:17:26;22.80;;;4.53;;
32734;SDS011;19112;51.076;3.706;2023-05-29T10:19:57;22.40;;;4.90;;
32734;SDS011;19112;51.076;3.706;2023-05-29T10:22:25;29.33;;;4.85;;
32734;SDS011;19112;51.076;3.706;2023-05-29T10:24:53;26.73;;;4.32;;
32734;SDS011;19112;51.076;3.706;2023-05-29T10:27:22;31.48;;;6.10;;
32734;SDS011;19112;51.076;3.706;2023-05-29T10:29:58;32.60;;;5.72;;
32734;SDS011;19112;51.076;3.706;2023-05-29T10:38:23;19.50;;;3.70;;
32734;SDS011;19112;51.076;3.706;2023-05-29T10:40:51;19.80;;;4.45;;
32734;SDS011;19112;51.076;3.706;2023-05-29T10:46:12;22.52;;;4.65;;
32734;SDS011;19112;51.076;3.706;2023-05-29T10:48:38;20.40;;;6.10;;
32734;SDS011;19112;51.076;3.706;2023-05-29T10:51:06;24.23;;;5.32;;
32734;SDS011;19112;51.076;3.706;2023-05-29T10:53:33;25.52;;;4.80;;
32734;SDS011;19112;51.076;3.706;2023-05-29T10:55:59;25.38;;;5.07;;
32734;SDS011;19112;51.076;3.706;2023-05-29T10:58:29;24.55;;;4.57;;
32734;SDS011;19112;51.076;3.706;2023-05-29T11:00:55;23.48;;;5.95;;
32734;SDS011;19112;51.076;3.706;2023-05-29T11:03:24;28.27;;;4.85;;
32734;SDS011;19112;51.076;3.706;2023-05-29T11:05:56;19.93;;;5.07;;
32734;SDS011;19112;51.076;3.706;2023-05-29T11:08:46;19.77;;;4.30;;
32734;SDS011;19112;51.076;3.706;2023-05-29T11:14:01;19.48;;;3.75;;
32734;SDS011;19112;51.076;3.706;2023-05-29T11:18:58;22.65;;;5.20;;
32734;SDS011;19112;51.076;3.706;2023-05-29T11:26:58;25.95;;;4.32;;
32734;SDS011;19112;51.076;3.706;2023-05-29T11:29:29;19.45;;;3.85;;
32734;SDS011;19112;51.076;3.706;2023-05-29T11:32:02;18.77;;;4.07;;
32734;SDS011;19112;51.076;3.706;2023-05-29T11:34:30;20.33;;;4.30;;
32734;SDS011;19112;51.076;3.706;2023-05-29T11:37:01;25.98;;;6.07;;
32734;SDS011;19112;51.076;3.706;2023-05-29T11:39:28;26.98;;;4.63;;
32734;SDS011;19112;51.076;3.706;2023-05-29T11:41:55;23.02;;;3.78;;
32734;SDS011;19112;51.076;3.706;2023-05-29T11:44:24;18.67;;;3.78;;
32734;SDS011;19112;51.076;3.706;2023-05-29T11:47:03;23.45;;;5.70;;
32734;SDS011;19112;51.076;3.706;2023-05-29T11:49:32;20.48;;;4.75;;
32734;SDS011;19112;51.076;3.706;2023-05-29T11:54:36;13.80;;;3.78;;
32734;SDS011;19112;51.076;3.706;2023-05-29T11:57:02;20.33;;;4.20;;
32734;SDS011;19112;51.076;3.706;2023-05-29T11:59:33;17.60;;;4.00;;
32734;SDS011;19112;51.076;3.706;2023-05-29T12:02:01;22.23;;;4.07;;
32734;SDS011;19112;51.076;3.706;2023-05-29T12:04:28;25.60;;;4.93;;
32734;SDS011;19112;51.076;3.706;2023-05-29T12:06:54;16.63;;;4.18;;
32734;SDS011;19112;51.076;3.706;2023-05-29T12:09:27;19.77;;;5.22;;
32734;SDS011;19112;51.076;3.706;2023-05-29T12:12:04;18.63;;;4.45;;
32734;SDS011;19112;51.076;3.706;2023-05-29T12:14:30;22.40;;;5.00;;
32734;SDS011;19112;51.076;3.706;2023-05-29T12:16:58;20.75;;;4.80;;
32734;SDS011;19112;51.076;3.706;2023-05-29T12:19:24;20.67;;;4.60;;
32734;SDS011;19112;51.076;3.706;2023-05-29T12:21:50;18.50;;;4.53;;
32734;SDS011;19112;51.076;3.706;2023-05-29T12:24:18;30.17;;;4.65;;
32734;SDS011;19112;51.076;3.706;2023-05-29T12:26:44;18.20;;;4.38;;
32734;SDS011;19112;51.076;3.706;2023-05-29T12:29:12;19.83;;;3.70;;
32734;SDS011;19112;51.076;3.706;2023-05-29T12:31:38;24.48;;;5.22;;
32734;SDS011;19112;51.076;3.706;2023-05-29T12:34:22;16.88;;;4.25;;
32734;SDS011;19112;51.076;3.706;2023-05-29T12:36:48;23.73;;;4.10;;
32734;SDS011;19112;51.076;3.706;2023-05-29T12:39:13;11.65;;;3.30;;
32734;SDS011;19112;51.076;3.706;2023-05-29T12:41:39;19.25;;;3.85;;
32734;SDS011;19112;51.076;3.706;2023-05-29T12:44:06;18.95;;;4.18;;
32734;SDS011;19112;51.076;3.706;2023-05-29T12:46:42;26.35;;;4.60;;
32734;SDS011;19112;51.076;3.706;2023-05-29T12:49:12;17.27;;;3.83;;
32734;SDS011;19112;51.076;3.706;2023-05-29T12:51:40;18.58;;;3.75;;
32734;SDS011;19112;51.076;3.706;2023-05-29T12:54:11;12.35;;;3.92;;
32734;SDS011;19112;51.076;3.706;2023-05-29T12:56:39;16.33;;;3.90;;
32734;SDS011;19112;51.076;3.706;2023-05-29T12:59:09;17.05;;;3.30;;
32734;SDS011;19112;51.076;3.706;2023-05-29T13:01:38;17.58;;;3.92;;
32734;SDS011;19112;51.076;3.706;2023-05-29T13:04:05;18.48;;;3.90;;
32734;SDS011;19112;51.076;3.706;2023-05-29T13:06:35;15.32;;;4.45;;
32734;SDS011;19112;51.076;3.706;2023-05-29T13:09:02;12.52;;;3.42;;
32734;SDS011;19112;51.076;3.706;2023-05-29T13:11:30;15.65;;;3.78;;
32734;SDS011;19112;51.076;3.706;2023-05-29T13:13:56;14.98;;;3.47;;
32734;SDS011;19112;51.076;3.706;2023-05-29T13:16:22;15.60;;;3.78;;
32734;SDS011;19112;51.076;3.706;2023-05-29T13:18:48;20.63;;;3.67;;
32734;SDS011;19112;51.076;3.706;2023-05-29T13:21:14;13.85;;;3.65;;
32734;SDS011;19112;51.076;3.706;2023-05-29T13:23:40;16.08;;;3.85;;
32734;SDS011;19112;51.076;3.706;2023-05-29T13:26:06;13.57;;;3.30;;
32734;SDS011;19112;51.076;3.706;2023-05-29T13:28:32;13.55;;;3.60;;
32734;SDS011;19112;51.076;3.706;2023-05-29T13:30:58;13.30;;;3.28;;
32734;SDS011;19112;51.076;3.706;2023-05-29T13:33:24;16.77;;;3.70;;
32734;SDS011;19112;51.076;3.706;2023-05-29T13:35:50;18.50;;;3.88;;
32734;SDS011;19112;51.076;3.706;2023-05-29T13:38:15;10.80;;;3.17;;
32734;SDS011;19112;51.076;3.706;2023-05-29T13:40:41;17.13;;;3.60;;
32734;SDS011;19112;51.076;3.706;2023-05-29T13:43:07;13.32;;;3.28;;
32734;SDS011;19112;51.076;3.706;2023-05-29T13:45:33;16.73;;;3.95;;
32734;SDS011;19112;51.076;3.706;2023-05-29T13:47:59;19.13;;;4.00;;
32734;SDS011;19112;51.076;3.706;2023-05-29T13:50:24;16.20;;;3.42;;
32734;SDS011;19112;51.076;3.706;2023-05-29T13:52:50;21.33;;;3.45;;
32734;SDS011;19112;51.076;3.706;2023-05-29T13:55:16;11.18;;;3.08;;
32734;SDS011;19112;51.076;3.706;2023-05-29T13:57:42;13.93;;;3.17;;
32734;SDS011;19112;51.076;3.706;2023-05-29T14:00:09;16.60;;;3.50;;
32734;SDS011;19112;51.076;3.706;2023-05-29T14:02:36;12.40;;;3.05;;
32734;SDS011;19112;51.076;3.706;2023-05-29T14:05:02;17.90;;;3.10;;
32734;SDS011;19112;51.076;3.706;2023-05-29T14:07:29;15.88;;;3.58;;
32734;SDS011;19112;51.076;3.706;2023-05-29T14:09:54;12.25;;;3.25;;
32734;SDS011;19112;51.076;3.706;2023-05-29T14:12:20;13.15;;;3.20;;
32734;SDS011;19112;51.076;3.706;2023-05-29T14:14:46;11.90;;;3.63;;
32734;SDS011;19112;51.076;3.706;2023-05-29T14:17:13;13.15;;;3.42;;
32734;SDS011;19112;51.076;3.706;2023-05-29T14:19:40;20.75;;;4.18;;
32734;SDS011;19112;51.076;3.706;2023-05-29T14:22:06;20.45;;;3.67;;
32734;SDS011;19112;51.076;3.706;2023-05-29T14:24:31;8.95;;;2.83;;
32734;SDS011;19112;51.076;3.706;2023-05-29T14:26:57;19.98;;;3.40;;
32734;SDS011;19112;51.076;3.706;2023-05-29T14:29:23;19.45;;;3.75;;
32734;SDS011;19112;51.076;3.706;2023-05-29T14:31:49;12.70;;;2.90;;
32734;SDS011;19112;51.076;3.706;2023-05-29T14:34:15;16.50;;;3.60;;
32734;SDS011;19112;51.076;3.706;2023-05-29T14:36:41;13.90;;;3.90;;
32734;SDS011;19112;51.076;3.706;2023-05-29T14:39:09;17.40;;;3.83;;
32734;SDS011;19112;51.076;3.706;2023-05-29T14:41:35;22.02;;;4.22;;
32734;SDS011;19112;51.076;3.706;2023-05-29T14:44:01;20.45;;;3.92;;
32734;SDS011;19112;51.076;3.706;2023-05-29T14:46:28;15.68;;;3.42;;
32734;SDS011;19112;51.076;3.706;2023-05-29T14:48:57;18.58;;;3.85;;
32734;SDS011;19112;51.076;3.706;2023-05-29T14:51:24;18.75;;;4.38;;
32734;SDS011;19112;51.076;3.706;2023-05-29T14:53:50;23.38;;;4.13;;
32734;SDS011;19112;51.076;3.706;2023-05-29T14:56:16;19.33;;;4.30;;
32734;SDS011;19112;51.076;3.706;2023-05-29T14:58:44;22.30;;;4.25;;
32734;SDS011;19112;51.076;3.706;2023-05-29T15:01:12;18.50;;;4.20;;
32734;SDS011;19112;51.076;3.706;2023-05-29T15:03:40;22.67;;;4.00;;
32734;SDS011;19112;51.076;3.706;2023-05-29T15:06:06;20.77;;;4.93;;
32734;SDS011;19112;51.076;3.706;2023-05-29T15:08:34;17.80;;;4.93;;
32734;SDS011;19112;51.076;3.706;2023-05-29T15:11:00;15.98;;;4.05;;
32734;SDS011;19112;51.076;3.706;2023-05-29T15:13:28;21.60;;;4.70;;
32734;SDS011;19112;51.076;3.706;2023-05-29T15:15:55;19.65;;;4.95;;
32734;SDS011;19112;51.076;3.706;2023-05-29T15:18:24;18.27;;;4.78;;
32734;SDS011;19112;51.076;3.706;2023-05-29T15:20:52;22.95;;;4.15;;
32734;SDS011;19112;51.076;3.706;2023-05-29T15:23:18;20.48;;;4.47;;